Abington, Massachusetts
Current Conditions -  °F | °C
As of 11:53 PM on Sunday 23 Nov 2014 (Local Time) from KOWD Reporting Station
Clear Clear  
Wind Chill: 34°   Ceiling: Unl
Heat Index: 34°   Visibility: 10mi
Dew Point: 32°   Wind: 0mph
Humidity: 92%   Direction: NA
Pressure: 30.1"   Gusts: NA
Location:  42.12°N, 70.96°W
Report Text: KOWD 240453Z AUTO 00000KT 10SM CLR 01/00 A3010 RMK AO2 SLP193 T00110000 401611006
Loading
Personal Weather Stations






























Interactive Weather Map New forecast layout! Learn more

10-Day Weather Forecast

Advertisements
Track Severe Weather on mobile